Terminal Aerodrome Forecast
Issued by NWS Sterling, VA

Home | Current Version | Previous Version | Text Only | Print | Product List | Glossary On
Versions: 1 2 3 4 5 6 7 8 9 10 11 12 13 14 15 16 17 18 19 20 21 22 23
562
FTUS41 KLWX 220859 AAA
TAFDCA
TAF AMD
KDCA 220859Z 2209/2306 20004KT 6SM -RA SCT025 OVC060
     FM221000 23004KT P6SM BKN060 BKN100
     FM221100 31010KT P6SM SCT060 BKN100
     FM221400 32015G27KT P6SM FEW060
     FM230000 34010KT P6SM SKC=

USA.gov is the U.S. government's official web portal to all federal, state and local government web resources and services.